createdAt,value
2018-12-21T00:01:44.769Z,96159.99
2018-12-21T00:04:15.158Z,96156.34
2018-12-21T00:06:45.859Z,96155.41
2018-12-21T00:09:16.705Z,96160.39
2018-12-21T00:11:47.575Z,96174.19
2018-12-21T00:14:18.305Z,96170.36
2018-12-21T00:16:49.068Z,96166.19
2018-12-21T00:19:19.556Z,96167.20
2018-12-21T00:21:50.206Z,96174.39
2018-12-21T00:24:20.831Z,96176.40
2018-12-21T00:26:51.647Z,96177.84
2018-12-21T00:29:22.317Z,96176.19
2018-12-21T00:31:57.968Z,96179.44
2018-12-21T00:34:33.676Z,96179.38
2018-12-21T00:37:09.374Z,96177.53
2018-12-21T00:39:45.139Z,96178.86
2018-12-21T00:42:19.672Z,96181.16
2018-12-21T00:44:52.879Z,96186.34
2018-12-21T00:47:23.371Z,96185.62
2018-12-21T00:49:53.987Z,96183.10
2018-12-21T00:52:24.763Z,96180.77
2018-12-21T00:54:55.348Z,96180.33
2018-12-21T00:57:25.991Z,96184.30
2018-12-21T00:59:56.587Z,96182.97
2018-12-21T01:02:27.289Z,96182.87
2018-12-21T01:04:57.957Z,96179.03
2018-12-21T01:07:28.750Z,96178.64
2018-12-21T01:10:00.583Z,96184.48
2018-12-21T01:12:31.283Z,96178.83
2018-12-21T01:15:02.167Z,96179.39
2018-12-21T01:17:33.949Z,96177.17
2018-12-21T01:20:05.147Z,96179.09
2018-12-21T01:22:35.619Z,96181.20
2018-12-21T01:25:06.516Z,96186.44
2018-12-21T01:27:37.191Z,96177.95
2018-12-21T01:30:08.380Z,96186.09
2018-12-21T01:32:39.095Z,96186.59
2018-12-21T01:35:09.663Z,96172.84
2018-12-21T01:37:40.303Z,96176.34
2018-12-21T01:40:10.887Z,96172.73
2018-12-21T01:42:41.706Z,96174.83
2018-12-21T01:45:12.505Z,96177.58
2018-12-21T01:47:43.046Z,96187.56
2018-12-21T01:50:13.722Z,96181.28
2018-12-21T01:52:44.477Z,96182.02
2018-12-21T01:55:14.984Z,96183.64
2018-12-21T01:57:45.575Z,96186.77
2018-12-21T02:00:16.216Z,96186.59
2018-12-21T02:02:46.893Z,96181.84
2018-12-21T02:05:17.747Z,96179.17
2018-12-21T02:07:48.408Z,96178.30
2018-12-21T02:10:18.985Z,96177.22
2018-12-21T02:12:49.542Z,96170.13
2018-12-21T02:15:20.150Z,96162.44
2018-12-21T02:17:50.954Z,96168.70
2018-12-21T02:20:21.450Z,96160.33
2018-12-21T02:22:52.075Z,96166.84
2018-12-21T02:25:22.787Z,96168.13
2018-12-21T02:27:53.484Z,96166.70
2018-12-21T02:30:24.056Z,96163.75
2018-12-21T02:32:54.652Z,96165.48
2018-12-21T02:35:25.200Z,96172.05
2018-12-21T02:37:55.912Z,96173.17
2018-12-21T02:40:26.694Z,96169.88
2018-12-21T02:42:57.379Z,96167.91
2018-12-21T02:45:27.937Z,96170.17
2018-12-21T02:47:58.604Z,96169.00
2018-12-21T02:50:29.313Z,96165.13
2018-12-21T02:53:00.100Z,96168.56
2018-12-21T02:55:31.091Z,96170.88
2018-12-21T02:58:01.863Z,96166.95
2018-12-21T03:00:32.880Z,96165.58
2018-12-21T03:03:03.838Z,96166.13
2018-12-21T03:05:34.555Z,96165.44
2018-12-21T03:08:05.304Z,96164.81
2018-12-21T03:10:36.232Z,96169.41
2018-12-21T03:13:07.037Z,96182.30
2018-12-21T03:15:37.779Z,96173.33
2018-12-21T03:18:08.364Z,96182.63
2018-12-21T03:20:38.943Z,96172.88
2018-12-21T03:23:09.505Z,96179.59
2018-12-21T03:25:40.095Z,96172.95
2018-12-21T03:28:10.886Z,96168.97
2018-12-21T03:30:41.436Z,96170.77
2018-12-21T03:33:12.150Z,96171.91
2018-12-21T03:35:42.733Z,96173.67
2018-12-21T03:38:13.365Z,96175.86
2018-12-21T03:40:43.676Z,96174.20
2018-12-21T03:43:14.434Z,96179.16
2018-12-21T03:45:45.073Z,96178.37
2018-12-21T03:48:15.826Z,96175.56
2018-12-21T03:50:46.438Z,96179.48
2018-12-21T03:53:16.978Z,96179.00
2018-12-21T03:55:47.570Z,96179.59
2018-12-21T03:58:18.207Z,96184.20
2018-12-21T04:00:48.874Z,96185.42
2018-12-21T04:03:19.503Z,96182.39
2018-12-21T04:05:50.157Z,96174.20
2018-12-21T04:08:20.796Z,96169.91
2018-12-21T04:10:51.564Z,96161.96
2018-12-21T04:13:22.228Z,96164.27
2018-12-21T04:15:52.928Z,96168.36
2018-12-21T04:18:23.562Z,96169.50
2018-12-21T04:20:54.397Z,96163.52
2018-12-21T04:23:25.016Z,96159.02
2018-12-21T04:25:55.660Z,96153.72
2018-12-21T04:28:26.323Z,96161.66
2018-12-21T04:30:56.747Z,96163.91
2018-12-21T04:33:27.378Z,96168.95
2018-12-21T04:35:57.925Z,96169.11
2018-12-21T04:38:28.553Z,96168.23
2018-12-21T04:40:59.082Z,96172.88
2018-12-21T04:43:29.692Z,96178.02
2018-12-21T04:46:00.304Z,96174.48
2018-12-21T04:48:31.095Z,96177.64
2018-12-21T04:51:01.759Z,96174.64
2018-12-21T04:53:32.101Z,96172.82
2018-12-21T04:56:02.935Z,96176.34
2018-12-21T04:58:33.480Z,96178.16
2018-12-21T05:01:04.084Z,96184.53
2018-12-21T05:03:34.512Z,96184.88
2018-12-21T05:06:04.776Z,96178.49
2018-12-21T05:08:35.151Z,96186.33
2018-12-21T05:11:05.761Z,96187.86
2018-12-21T05:13:36.330Z,96187.08
2018-12-21T05:16:06.950Z,96181.63
2018-12-21T05:18:38.247Z,96175.00
2018-12-21T05:21:08.796Z,96183.20
2018-12-21T05:23:39.249Z,96190.59
2018-12-21T05:26:09.712Z,96192.92
2018-12-21T05:28:40.258Z,96196.35
2018-12-21T05:31:10.812Z,96199.48
2018-12-21T05:33:41.521Z,96197.81
2018-12-21T05:36:11.977Z,96194.41
2018-12-21T05:38:42.700Z,96197.63
2018-12-21T05:41:13.376Z,96211.36
2018-12-21T05:43:44.047Z,96211.77
2018-12-21T05:46:14.747Z,96212.36
2018-12-21T05:48:45.175Z,96218.44
2018-12-21T05:51:15.486Z,96215.78
2018-12-21T05:53:46.052Z,96217.80
2018-12-21T05:56:16.851Z,96222.16
2018-12-21T05:58:47.493Z,96224.84
2018-12-21T06:01:18.163Z,96214.77
2018-12-21T06:03:48.950Z,96220.33
2018-12-21T06:06:19.621Z,96219.06
2018-12-21T06:08:50.469Z,96204.91
2018-12-21T06:11:21.353Z,96210.89
2018-12-21T06:13:52.036Z,96205.98
2018-12-21T06:16:22.803Z,96216.75
2018-12-21T06:18:53.486Z,96221.31
2018-12-21T06:21:24.085Z,96216.02
2018-12-21T06:23:54.823Z,96207.84
2018-12-21T06:26:25.452Z,96210.97
2018-12-21T06:28:56.189Z,96207.15
2018-12-21T06:31:26.799Z,96201.38
2018-12-21T06:33:57.465Z,96197.46
2018-12-21T06:36:27.756Z,96199.86
2018-12-21T06:38:58.537Z,96202.61
2018-12-21T06:41:29.044Z,96198.39
2018-12-21T06:43:59.640Z,96194.62
2018-12-21T06:46:30.447Z,96185.89
2018-12-21T06:49:00.982Z,96182.02
2018-12-21T06:51:31.458Z,96178.59
2018-12-21T06:54:02.161Z,96176.37
2018-12-21T06:56:32.933Z,96181.67
2018-12-21T06:59:03.637Z,96190.25
2018-12-21T07:01:34.113Z,96188.70
2018-12-21T07:04:04.642Z,96199.80
2018-12-21T07:06:35.364Z,96205.18
2018-12-21T07:09:07.740Z,96207.68
2018-12-21T07:11:38.384Z,96213.28
2018-12-21T07:14:09.058Z,96219.38
2018-12-21T07:16:39.706Z,96224.20
2018-12-21T07:19:10.347Z,96221.37
2018-12-21T07:21:40.886Z,96233.96
2018-12-21T07:24:11.286Z,96231.23
2018-12-21T07:26:41.707Z,96227.23
2018-12-21T07:29:12.114Z,96234.69
2018-12-21T07:31:42.728Z,96234.30
2018-12-21T07:34:13.475Z,96236.84
2018-12-21T07:36:44.358Z,96230.63
2018-12-21T07:39:14.964Z,96235.67
2018-12-21T07:41:45.374Z,96230.67
2018-12-21T07:44:16.102Z,96240.83
2018-12-21T07:46:46.815Z,96228.17
2018-12-21T07:49:17.389Z,96229.61
2018-12-21T07:51:48.082Z,96235.42
2018-12-21T07:54:18.924Z,96241.55
2018-12-21T07:56:49.619Z,96241.75
2018-12-21T07:59:20.227Z,96243.70
2018-12-21T08:01:50.894Z,96252.14
2018-12-21T08:04:21.553Z,96257.32
2018-12-21T08:06:52.255Z,96255.55
2018-12-21T08:09:22.787Z,96265.02
2018-12-21T08:11:53.426Z,96257.61
2018-12-21T08:14:24.155Z,96250.16
2018-12-21T08:16:54.867Z,96255.61
2018-12-21T08:19:25.555Z,96250.70
2018-12-21T08:21:56.020Z,96257.45
2018-12-21T08:24:26.771Z,96258.86
2018-12-21T08:26:57.511Z,96263.52
2018-12-21T08:29:27.993Z,96247.55
2018-12-21T08:31:58.587Z,96245.98
2018-12-21T08:34:29.307Z,96243.92
2018-12-21T08:37:00.126Z,96241.11
2018-12-21T08:39:30.718Z,96249.04
2018-12-21T08:42:01.252Z,96247.49
2018-12-21T08:44:32.268Z,96242.06
2018-12-21T08:47:02.961Z,96240.28
2018-12-21T08:49:39.901Z,96237.13
2018-12-21T08:52:10.708Z,96231.66
2018-12-21T08:54:41.226Z,96233.09
2018-12-21T08:57:11.858Z,96228.43
2018-12-21T08:59:42.662Z,96225.20
2018-12-21T09:02:13.093Z,96235.19
2018-12-21T09:04:43.748Z,96243.85
2018-12-21T09:07:14.268Z,96240.73
2018-12-21T09:09:45.110Z,96230.70
2018-12-21T09:12:15.701Z,96233.73
2018-12-21T09:14:46.368Z,96229.97
2018-12-21T09:17:17.091Z,96230.02
2018-12-21T09:19:47.659Z,96220.67
2018-12-21T09:22:18.247Z,96229.60
2018-12-21T09:24:49.067Z,96218.94
2018-12-21T09:27:19.828Z,96218.52
2018-12-21T09:29:50.469Z,96204.20
2018-12-21T09:32:21.096Z,96197.86
2018-12-21T09:34:51.931Z,96195.35
2018-12-21T09:37:22.792Z,96185.25
2018-12-21T09:39:53.449Z,96180.19
2018-12-21T09:42:24.583Z,96170.91
2018-12-21T09:44:55.528Z,96172.60
2018-12-21T09:47:26.308Z,96159.91
2018-12-21T09:49:57.121Z,96162.05
2018-12-21T09:52:27.872Z,96161.39
2018-12-21T09:54:58.502Z,96155.22
2018-12-21T09:57:29.148Z,96153.02
2018-12-21T09:59:59.814Z,96156.42
2018-12-21T10:02:35.753Z,96156.99
2018-12-21T10:05:03.463Z,96165.80
2018-12-21T10:07:33.989Z,96163.17
2018-12-21T10:10:05.012Z,96154.66
2018-12-21T10:12:35.717Z,96153.88
2018-12-21T10:15:07.502Z,96157.41
2018-12-21T10:17:37.886Z,96156.52
2018-12-21T10:20:09.976Z,96152.45
2018-12-21T10:22:40.675Z,96154.75
2018-12-21T10:25:11.436Z,96153.25
2018-12-21T10:27:42.138Z,96153.27
2018-12-21T10:30:12.842Z,96152.59
2018-12-21T10:32:43.165Z,96144.86
2018-12-21T10:35:14.001Z,96141.09
2018-12-21T10:37:44.891Z,96137.49
2018-12-21T10:40:15.404Z,96133.42
2018-12-21T10:42:45.979Z,96131.66
2018-12-21T10:45:16.813Z,96134.94
2018-12-21T10:47:47.552Z,96137.97
2018-12-21T10:50:18.489Z,96136.72
2018-12-21T10:52:49.063Z,96131.75
2018-12-21T10:55:19.711Z,96126.76
2018-12-21T10:57:50.346Z,96118.48
2018-12-21T11:00:21.563Z,96116.90
2018-12-21T11:02:52.125Z,96107.28
2018-12-21T11:05:22.777Z,96113.44
2018-12-21T11:07:53.609Z,96115.63
2018-12-21T11:10:24.450Z,96108.56
2018-12-21T11:12:55.268Z,96112.11
2018-12-21T11:15:26.195Z,96104.59
2018-12-21T11:17:57.049Z,96102.84
2018-12-21T11:20:27.795Z,96093.72
2018-12-21T11:22:58.839Z,96101.05
2018-12-21T11:25:29.591Z,96089.38
2018-12-21T11:28:00.210Z,96090.11
2018-12-21T11:30:30.878Z,96088.09
2018-12-21T11:33:01.559Z,96086.09
2018-12-21T11:35:32.541Z,96081.75
2018-12-21T11:38:03.596Z,96078.69
2018-12-21T11:40:34.396Z,96072.55
2018-12-21T11:43:05.082Z,96073.81
2018-12-21T11:45:35.621Z,96070.08
2018-12-21T11:48:06.380Z,96069.00
2018-12-21T11:50:36.966Z,96068.48
2018-12-21T11:53:07.813Z,96063.78
2018-12-21T11:55:38.361Z,96055.68
2018-12-21T11:58:09.173Z,96054.78
2018-12-21T12:00:39.856Z,96060.70
2018-12-21T12:03:10.746Z,96060.59
2018-12-21T12:05:41.532Z,96071.60
2018-12-21T12:08:12.081Z,96059.94
2018-12-21T12:10:42.644Z,96061.67
2018-12-21T12:13:13.200Z,96067.52
2018-12-21T12:15:44.036Z,96066.79
2018-12-21T12:18:14.614Z,96062.50
2018-12-21T12:20:45.356Z,96048.09
2018-12-21T12:23:16.276Z,96045.02
2018-12-21T12:25:46.963Z,96058.33
2018-12-21T12:28:17.523Z,96060.23
2018-12-21T12:30:48.367Z,96043.94
2018-12-21T12:33:19.147Z,96038.82
2018-12-21T12:35:49.943Z,96033.17
2018-12-21T12:38:20.665Z,96042.66
2018-12-21T12:40:51.150Z,96041.80
2018-12-21T12:43:21.904Z,96031.66
2018-12-21T12:45:52.552Z,96028.81
2018-12-21T12:48:23.235Z,96025.26
2018-12-21T12:50:54.024Z,96027.89
2018-12-21T12:53:24.576Z,96031.76
2018-12-21T12:55:55.449Z,96046.47
2018-12-21T12:58:25.971Z,96046.67
2018-12-21T13:00:56.736Z,96055.31
2018-12-21T13:03:27.111Z,96050.09
2018-12-21T13:05:57.631Z,96055.59
2018-12-21T13:08:28.284Z,96053.50
2018-12-21T13:10:59.053Z,96057.21
2018-12-21T13:13:29.993Z,96057.73
2018-12-21T13:16:00.714Z,96060.62
2018-12-21T13:18:31.314Z,96058.16
2018-12-21T13:21:02.167Z,96053.17
2018-12-21T13:23:32.798Z,96054.91
2018-12-21T13:26:03.460Z,96054.33
2018-12-21T13:28:34.217Z,96054.72
2018-12-21T13:31:05.702Z,96044.26
2018-12-21T13:33:36.238Z,96043.48
2018-12-21T13:36:07.837Z,96038.27
2018-12-21T13:38:38.465Z,96033.59
2018-12-21T13:41:09.353Z,96040.61
2018-12-21T13:43:39.883Z,96037.16
2018-12-21T13:46:10.605Z,96027.85
2018-12-21T13:48:41.313Z,96019.87
2018-12-21T13:51:12.243Z,96024.47
2018-12-21T13:53:42.957Z,96033.26
2018-12-21T13:56:13.589Z,96032.72
2018-12-21T13:58:44.333Z,96033.70
2018-12-21T14:01:15.072Z,96030.98
2018-12-21T14:03:45.755Z,96021.27
2018-12-21T14:06:17.204Z,96016.24
2018-12-21T14:08:47.804Z,96019.98
2018-12-21T14:11:18.575Z,96017.19
2018-12-21T14:13:49.166Z,96019.91
2018-12-21T14:16:19.992Z,96028.09
2018-12-21T14:18:50.777Z,96033.08
2018-12-21T14:21:21.624Z,96036.45
2018-12-21T14:23:52.376Z,96041.58
2018-12-21T14:26:22.979Z,96050.81
2018-12-21T14:28:53.701Z,96049.87
2018-12-21T14:31:24.518Z,96055.27
2018-12-21T14:33:54.872Z,96053.60
2018-12-21T14:36:25.390Z,96062.41
2018-12-21T14:38:55.920Z,96070.09
2018-12-21T14:41:26.372Z,96069.25
2018-12-21T14:43:56.696Z,96073.25
2018-12-21T14:46:27.418Z,96069.06
2018-12-21T14:48:58.140Z,96072.92
2018-12-21T14:51:28.850Z,96067.50
2018-12-21T14:53:59.515Z,96058.77
2018-12-21T14:56:30.042Z,96066.52
2018-12-21T14:59:00.682Z,96060.53
2018-12-21T15:01:31.140Z,96057.85
2018-12-21T15:04:01.756Z,96056.95
2018-12-21T15:06:32.355Z,96070.27
2018-12-21T15:09:03.204Z,96069.83
2018-12-21T15:11:34.719Z,96067.59
2018-12-21T15:14:05.369Z,96062.95
2018-12-21T15:16:35.904Z,96055.92
2018-12-21T15:19:06.746Z,96061.39
2018-12-21T15:21:37.514Z,96059.31
2018-12-21T15:24:07.980Z,96057.58
2018-12-21T15:26:38.494Z,96063.31
2018-12-21T15:29:09.272Z,96064.80
2018-12-21T15:31:39.714Z,96069.39
2018-12-21T15:34:10.417Z,96066.84
2018-12-21T15:36:40.901Z,96067.06
2018-12-21T15:39:11.567Z,96063.27
2018-12-21T15:41:42.251Z,96068.30
2018-12-21T15:44:12.879Z,96058.13
2018-12-21T15:46:43.954Z,96062.20
2018-12-21T15:49:14.748Z,96059.67
2018-12-21T15:51:46.202Z,96058.74
2018-12-21T15:54:16.705Z,96057.91
2018-12-21T15:56:47.631Z,96065.10
2018-12-21T15:59:18.422Z,96057.08
2018-12-21T16:01:48.924Z,96047.48
2018-12-21T16:04:19.420Z,96059.00
2018-12-21T16:06:51.036Z,96058.39
2018-12-21T16:09:22.278Z,96051.33
2018-12-21T16:11:53.024Z,96047.88
2018-12-21T16:14:23.591Z,96055.73
2018-12-21T16:16:54.415Z,96060.36
2018-12-21T16:19:24.900Z,96063.81
2018-12-21T16:21:55.643Z,96075.70
2018-12-21T16:24:26.453Z,96076.13
2018-12-21T16:26:57.139Z,96082.38
2018-12-21T16:29:27.898Z,96078.98
2018-12-21T16:31:58.570Z,96087.42
2018-12-21T16:34:29.074Z,96092.74
2018-12-21T16:36:59.699Z,96101.80
2018-12-21T16:39:30.312Z,96097.36
2018-12-21T16:42:01.078Z,96078.86
2018-12-21T16:44:31.668Z,96087.42
2018-12-21T16:47:02.373Z,96084.87
2018-12-21T16:49:33.158Z,96079.86
2018-12-21T16:52:04.065Z,96085.95
2018-12-21T16:54:34.428Z,96095.88
2018-12-21T16:57:05.137Z,96089.06
2018-12-21T16:59:35.663Z,96084.42
2018-12-21T17:02:06.352Z,96081.48
2018-12-21T17:04:37.154Z,96074.79
2018-12-21T17:07:07.795Z,96064.62
2018-12-21T17:09:38.291Z,96061.04
2018-12-21T17:12:15.229Z,96060.28
2018-12-21T17:14:45.943Z,96051.74
2018-12-21T17:17:16.476Z,96060.28
2018-12-21T17:19:47.060Z,96064.47
2018-12-21T17:22:17.721Z,96058.61
2018-12-21T17:24:48.487Z,96057.34
2018-12-21T17:27:19.147Z,96067.62
2018-12-21T17:29:49.917Z,96062.52
2018-12-21T17:32:20.648Z,96062.34
2018-12-21T17:34:51.097Z,96066.33
2018-12-21T17:37:21.728Z,96060.30
2018-12-21T17:39:52.016Z,96053.70
2018-12-21T17:42:22.637Z,96052.72
2018-12-21T17:44:53.511Z,96055.05
2018-12-21T17:47:24.284Z,96056.84
2018-12-21T17:49:54.946Z,96061.75
2018-12-21T17:52:26.463Z,96066.87
2018-12-21T17:54:57.148Z,96067.37
2018-12-21T17:57:27.687Z,96066.19
2018-12-21T17:59:58.304Z,96058.58
2018-12-21T18:02:29.148Z,96057.62
2018-12-21T18:04:59.996Z,96062.45
2018-12-21T18:07:30.758Z,96060.34
2018-12-21T18:10:01.661Z,96054.23
2018-12-21T18:12:32.414Z,96057.21
2018-12-21T18:15:03.155Z,96051.48
2018-12-21T18:17:33.886Z,96048.50
2018-12-21T18:20:04.570Z,96045.66
2018-12-21T18:22:35.271Z,96037.78
2018-12-21T18:25:13.319Z,96037.31
2018-12-21T18:27:45.548Z,96035.91
2018-12-21T18:30:22.641Z,96029.66
2018-12-21T18:32:53.437Z,96036.20
2018-12-21T18:35:24.456Z,96032.49
2018-12-21T18:38:02.236Z,96037.34
2018-12-21T18:40:33.433Z,96043.34
2018-12-21T18:43:04.316Z,96033.30
2018-12-21T18:45:34.944Z,96043.48
2018-12-21T18:48:05.656Z,96044.23
2018-12-21T18:50:36.696Z,96035.78
2018-12-21T18:53:07.419Z,96036.06
2018-12-21T18:55:38.108Z,96037.66
2018-12-21T18:58:08.588Z,96029.39
2018-12-21T19:00:39.202Z,96021.97
2018-12-21T19:03:09.934Z,96028.91
2018-12-21T19:05:40.507Z,96024.78
2018-12-21T19:08:11.305Z,96026.70
2018-12-21T19:10:41.923Z,96021.11
2018-12-21T19:13:12.669Z,96017.20
2018-12-21T19:15:43.007Z,96014.58
2018-12-21T19:18:13.931Z,96017.13
2018-12-21T19:20:44.444Z,96005.00
2018-12-21T19:23:15.275Z,96000.95
2018-12-21T19:25:46.027Z,96005.64
2018-12-21T19:28:17.014Z,96004.08
2018-12-21T19:30:47.804Z,95997.70
2018-12-21T19:33:18.660Z,95998.84
2018-12-21T19:35:49.471Z,95997.88
2018-12-21T19:38:21.308Z,96001.11
2018-12-21T19:40:52.097Z,96004.39
2018-12-21T19:43:28.070Z,96000.01
2018-12-21T19:45:55.486Z,95989.52
2018-12-21T19:48:26.234Z,95992.19
2018-12-21T19:50:57.128Z,95988.89
2018-12-21T19:53:28.425Z,95987.09
2018-12-21T19:56:16.317Z,95985.20
2018-12-21T19:58:47.108Z,95982.06
2018-12-21T20:01:17.980Z,95976.58
2018-12-21T20:03:48.513Z,95977.98
2018-12-21T20:06:19.134Z,95978.92
2018-12-21T20:08:49.817Z,95967.61
2018-12-21T20:11:20.598Z,95971.63
2018-12-21T20:13:51.387Z,95973.48
2018-12-21T20:16:21.958Z,95977.59
2018-12-21T20:18:53.024Z,95971.08
2018-12-21T20:21:24.679Z,95970.83
2018-12-21T20:23:55.444Z,95972.05
2018-12-21T20:26:26.330Z,95975.51
2018-12-21T20:28:56.987Z,95969.59
2018-12-21T20:31:27.601Z,95961.56
2018-12-21T20:33:57.972Z,95959.14
2018-12-21T20:36:28.666Z,95959.70
2018-12-21T20:38:59.323Z,95967.15
2018-12-21T20:41:30.051Z,95958.59
2018-12-21T20:44:00.770Z,95963.22
2018-12-21T20:46:31.479Z,95964.61
2018-12-21T20:49:01.960Z,95955.48
2018-12-21T20:51:32.663Z,95951.39
2018-12-21T20:54:03.347Z,95943.16
2018-12-21T20:56:33.899Z,95949.70
2018-12-21T20:59:08.558Z,95946.64
2018-12-21T21:01:40.181Z,95950.73
2018-12-21T21:04:10.930Z,95947.11
2018-12-21T21:06:41.764Z,95943.16
2018-12-21T21:09:13.428Z,95952.42
2018-12-21T21:11:44.461Z,95946.24
2018-12-21T21:14:16.346Z,95935.77
2018-12-21T21:16:46.854Z,95925.64
2018-12-21T21:19:17.594Z,95929.25
2018-12-21T21:21:48.546Z,95932.11
2018-12-21T21:24:19.411Z,95929.98
2018-12-21T21:26:50.294Z,95931.11
2018-12-21T21:29:20.770Z,95918.65
2018-12-21T21:31:51.363Z,95918.94
2018-12-21T21:34:21.913Z,95920.91
2018-12-21T21:36:52.511Z,95919.83
2018-12-21T21:39:23.406Z,95919.38
2018-12-21T21:41:54.284Z,95911.88
2018-12-21T21:44:25.002Z,95918.96
2018-12-21T21:46:55.534Z,95916.03
2018-12-21T21:49:26.050Z,95925.19
2018-12-21T21:51:56.793Z,95929.42
2018-12-21T21:54:27.554Z,95920.20
2018-12-21T21:56:58.170Z,95927.94
2018-12-21T21:59:28.841Z,95926.72
2018-12-21T22:01:59.191Z,95919.92
2018-12-21T22:04:29.850Z,95916.60
2018-12-21T22:07:00.642Z,95912.28
2018-12-21T22:09:31.566Z,95915.48
2018-12-21T22:12:04.002Z,95910.19
2018-12-21T22:14:34.540Z,95911.58
2018-12-21T22:17:05.235Z,95907.42
2018-12-21T22:19:36.018Z,95907.81
2018-12-21T22:22:06.566Z,95908.00
2018-12-21T22:24:37.135Z,95915.34
2018-12-21T22:27:07.785Z,95909.48
2018-12-21T22:29:38.566Z,95905.91
2018-12-21T22:32:09.118Z,95897.23
2018-12-21T22:34:39.677Z,95896.22
2018-12-21T22:37:10.200Z,95887.55
2018-12-21T22:39:40.837Z,95886.48
2018-12-21T22:42:11.602Z,95886.16
2018-12-21T22:44:42.264Z,95889.91
2018-12-21T22:47:12.964Z,95895.17
2018-12-21T22:49:43.353Z,95893.34
2018-12-21T22:52:14.112Z,95891.19
2018-12-21T22:54:44.795Z,95883.81
2018-12-21T22:57:15.474Z,95886.47
2018-12-21T22:59:46.044Z,95892.34
2018-12-21T23:02:16.532Z,95891.45
2018-12-21T23:04:47.172Z,95889.81
2018-12-21T23:07:17.824Z,95886.03
2018-12-21T23:09:48.346Z,95881.77
2018-12-21T23:12:18.804Z,95879.95
2018-12-21T23:14:49.511Z,95869.03
2018-12-21T23:17:19.931Z,95864.70
2018-12-21T23:19:50.363Z,95855.78
2018-12-21T23:22:21.117Z,95852.25
2018-12-21T23:24:51.732Z,95835.61
2018-12-21T23:27:22.485Z,95833.81
2018-12-21T23:29:52.982Z,95825.83
2018-12-21T23:32:23.692Z,95821.61
2018-12-21T23:34:54.371Z,95829.01
2018-12-21T23:37:24.840Z,95829.39
2018-12-21T23:39:55.518Z,95838.43
2018-12-21T23:42:25.874Z,95849.02
2018-12-21T23:44:56.339Z,95847.58
2018-12-21T23:47:26.782Z,95843.38
2018-12-21T23:49:57.409Z,95840.58
2018-12-21T23:52:28.112Z,95846.06
2018-12-21T23:54:58.607Z,95849.95
2018-12-21T23:57:29.206Z,95844.38
2018-12-21T23:59:59.863Z,95851.39
